Time;durP1;ratioP1;P1;durP2;ratioP2;P2;SDS_P1;SDS_P2;PMS_P1;PMS_P2;Temp;Humidity;BMP_temperature;BMP_pressure;BME280_temperature;BME280_humidity;BME280_pressure;Samples;Min_cycle;Max_cycle;Signal;HPM_P1;HPM_P2
2021/01/24 00:01:49;;;;;;;91.78;34.30;;;6.20;94.70;;;;;;5053434;28;20024;-81
2021/01/24 00:04:14;;;;;;;99.70;38.25;;;6.20;94.60;;;;;;5053423;28;20021;-82
2021/01/24 00:06:40;;;;;;;100.15;39.65;;;6.20;94.60;;;;;;5053103;28;20141;-82
2021/01/24 00:09:06;;;;;;;71.10;32.20;;;6.20;94.90;;;;;;5054498;28;20028;-82
2021/01/24 00:11:31;;;;;;;145.63;48.22;;;6.20;94.70;;;;;;5054352;28;20387;-82
2021/01/24 00:13:57;;;;;;;117.30;41.97;;;6.20;95.00;;;;;;5054476;28;20029;-82
2021/01/24 00:16:23;;;;;;;131.77;42.65;;;6.30;94.60;;;;;;5054430;28;20510;-82
2021/01/24 00:18:48;;;;;;;132.60;44.58;;;6.30;94.70;;;;;;5054129;28;20068;-82
2021/01/24 00:21:14;;;;;;;158.98;49.42;;;6.30;94.50;;;;;;5054637;28;20048;-82
2021/01/24 00:23:40;;;;;;;159.13;53.45;;;6.30;94.50;;;;;;5052906;28;20494;-82
2021/01/24 00:26:07;;;;;;;247.52;71.90;;;6.40;94.30;;;;;;5052998;28;20017;-82
2021/01/24 00:28:32;;;;;;;250.68;74.68;;;6.40;94.30;;;;;;5054235;28;20025;-82
2021/01/24 00:30:59;;;;;;;223.25;70.90;;;6.40;94.40;;;;;;5054482;28;20517;-83
2021/01/24 00:33:24;;;;;;;245.75;73.95;;;6.50;94.40;;;;;;5054090;28;20079;-82
2021/01/24 00:35:50;;;;;;;275.33;79.72;;;6.60;94.70;;;;;;5054138;28;20033;-82
2021/01/24 00:38:16;;;;;;;250.43;76.57;;;6.60;94.40;;;;;;5053879;28;20033;-83
2021/01/24 00:40:41;;;;;;;228.90;66.85;;;6.60;94.30;;;;;;5054555;28;20025;-82
2021/01/24 00:43:07;;;;;;;236.32;71.50;;;6.60;94.20;;;;;;5052749;28;20040;-82
2021/01/24 00:45:33;;;;;;;260.58;77.05;;;6.60;93.90;;;;;;5054180;28;20485;-82
2021/01/24 00:47:58;;;;;;;280.45;82.03;;;6.60;94.10;;;;;;5053574;28;20039;-82
2021/01/24 00:50:24;;;;;;;289.75;81.95;;;6.70;94.00;;;;;;5052631;28;20063;-82
2021/01/24 00:52:50;;;;;;;222.93;70.68;;;6.70;94.00;;;;;;5052601;28;20501;-82
2021/01/24 00:55:16;;;;;;;165.35;51.92;;;6.80;94.00;;;;;;5054193;28;20463;-82
2021/01/24 00:57:41;;;;;;;101.63;39.15;;;6.80;93.80;;;;;;5053702;28;20047;-82
2021/01/24 01:00:08;;;;;;;81.75;36.38;;;6.70;93.60;;;;;;5052614;28;20017;-83
2021/01/24 01:02:33;;;;;;;82.38;35.50;;;6.80;93.70;;;;;;5052514;28;20036;-82
2021/01/24 01:04:59;;;;;;;112.10;46.55;;;6.80;93.80;;;;;;5053732;28;20017;-83
2021/01/24 01:07:25;;;;;;;104.82;41.38;;;6.80;94.00;;;;;;5052604;28;20112;-82
2021/01/24 01:09:51;;;;;;;117.65;44.45;;;6.80;93.90;;;;;;5052379;28;20163;-82
2021/01/24 01:12:17;;;;;;;117.90;41.33;;;6.80;94.00;;;;;;5053684;28;20372;-82
2021/01/24 01:14:42;;;;;;;172.45;51.65;;;6.80;94.00;;;;;;5053522;28;20033;-83
2021/01/24 01:17:08;;;;;;;213.90;54.33;;;6.80;94.00;;;;;;5053338;28;20045;-83
2021/01/24 01:19:34;;;;;;;204.82;52.13;;;6.80;94.00;;;;;;5052255;28;20036;-82
2021/01/24 01:21:59;;;;;;;264.30;61.67;;;6.70;93.80;;;;;;5052225;28;20044;-82
2021/01/24 01:24:25;;;;;;;191.85;48.25;;;6.70;93.90;;;;;;5053478;28;20017;-83
2021/01/24 01:26:51;;;;;;;163.07;45.60;;;6.70;93.90;;;;;;5052269;28;20385;-82
2021/01/24 01:29:17;;;;;;;139.90;41.58;;;6.60;94.10;;;;;;5052185;28;20025;-82
2021/01/24 01:31:42;;;;;;;140.68;41.67;;;6.60;94.00;;;;;;5052173;28;20025;-82
2021/01/24 01:34:08;;;;;;;99.28;32.97;;;6.70;94.10;;;;;;5053333;28;20524;-82
2021/01/24 01:36:34;;;;;;;99.80;35.05;;;6.70;94.10;;;;;;5052156;28;20440;-83
2021/01/24 01:39:01;;;;;;;153.95;40.72;;;6.60;94.20;;;;;;5053324;28;20025;-82
2021/01/24 01:41:34;;;;;;;158.68;43.90;;;6.60;94.20;;;;;;5052099;28;20036;-82
2021/01/24 01:44:01;;;;;;;174.95;46.47;;;6.60;94.30;;;;;;5052054;28;20021;-82
2021/01/24 01:46:28;;;;;;;224.07;58.22;;;6.60;94.20;;;;;;5052057;28;20032;-82
2021/01/24 01:48:55;;;;;;;300.77;74.93;;;6.60;94.60;;;;;;5053226;28;20459;-82
2021/01/24 01:51:21;;;;;;;283.08;67.53;;;6.60;95.30;;;;;;5053196;28;20073;-82
2021/01/24 01:53:47;;;;;;;256.90;63.80;;;6.60;95.00;;;;;;5053562;28;20055;-82
2021/01/24 01:56:14;;;;;;;315.75;78.22;;;6.60;94.70;;;;;;5053501;28;20021;-82
2021/01/24 01:58:40;;;;;;;357.70;86.78;;;6.60;95.40;;;;;;5051854;28;20032;-83
2021/01/24 02:01:15;;;;;;;364.35;89.60;;;6.70;95.30;;;;;;5056645;28;20071;-82
2021/01/24 02:03:57;;;;;;;278.42;69.70;;;6.60;95.50;;;;;;5056886;28;20029;-81
2021/01/24 02:06:36;;;;;;;344.10;80.80;;;6.70;95.10;;;;;;5055494;28;20033;-82
2021/01/24 02:09:04;;;;;;;328.52;77.70;;;6.70;95.10;;;;;;5055514;28;20489;-82
2021/01/24 02:11:43;;;;;;;328.75;79.10;;;6.60;95.00;;;;;;5056738;28;20043;-82
2021/01/24 02:14:28;;;;;;;373.80;83.43;;;6.60;95.10;;;;;;5055326;28;20086;-82
2021/01/24 02:16:55;;;;;;;373.10;87.20;;;6.60;95.30;;;;;;5055243;28;20394;-83
2021/01/24 02:19:34;;;;;;;266.15;67.38;;;6.60;95.40;;;;;;5055548;28;20422;-82
2021/01/24 02:22:00;;;;;;;283.33;67.00;;;6.60;95.40;;;;;;5056563;28;20467;-82
2021/01/24 02:24:33;;;;;;;311.77;71.65;;;6.60;95.30;;;;;;5056954;28;20029;-82
2021/01/24 02:26:59;;;;;;;244.98;59.80;;;6.60;95.30;;;;;;5056464;28;20048;-82
2021/01/24 02:29:49;;;;;;;242.15;61.17;;;6.60;95.10;;;;;;5055324;28;20434;-82
2021/01/24 02:32:16;;;;;;;191.40;51.97;;;6.60;95.20;;;;;;5055290;28;20056;-82
2021/01/24 02:34:44;;;;;;;172.35;48.38;;;6.60;95.10;;;;;;5056444;28;20029;-82
2021/01/24 02:37:11;;;;;;;137.77;43.92;;;6.60;95.10;;;;;;5056244;28;20033;-82
2021/01/24 02:39:37;;;;;;;154.25;48.60;;;6.60;95.00;;;;;;5055047;28;20021;-82
2021/01/24 02:42:04;;;;;;;133.20;49.55;;;6.60;95.00;;;;;;5056197;28;20100;-82
2021/01/24 02:44:31;;;;;;;104.28;42.22;;;6.60;95.20;;;;;;5056290;28;20436;-82
2021/01/24 02:46:58;;;;;;;108.25;42.45;;;6.60;95.00;;;;;;5055039;28;20351;-82
2021/01/24 02:49:28;;;;;;;112.32;45.33;;;6.60;94.90;;;;;;5054729;28;20025;-82
2021/01/24 02:51:54;;;;;;;92.85;39.92;;;6.60;94.90;;;;;;5054869;28;20467;-82
2021/01/24 02:54:20;;;;;;;94.70;40.85;;;6.70;94.90;;;;;;5054861;28;20528;-82
2021/01/24 02:56:46;;;;;;;95.40;40.28;;;6.70;94.90;;;;;;5054785;28;20017;-81
2021/01/24 02:59:13;;;;;;;91.28;36.40;;;6.70;94.70;;;;;;5054672;28;20861;-83
2021/01/24 03:01:39;;;;;;;94.78;38.72;;;6.70;94.60;;;;;;5054742;28;20063;-83
2021/01/24 03:04:05;;;;;;;95.88;40.08;;;6.80;94.50;;;;;;5055833;28;20037;-82
2021/01/24 03:06:31;;;;;;;103.75;39.97;;;6.70;94.60;;;;;;5054646;28;20017;-83
2021/01/24 03:08:57;;;;;;;89.32;35.35;;;6.70;94.60;;;;;;5055820;28;20032;-83
2021/01/24 03:11:23;;;;;;;97.32;40.78;;;6.70;94.40;;;;;;5055430;28;20064;-82
2021/01/24 03:13:55;;;;;;;98.78;37.40;;;6.70;94.50;;;;;;5055765;28;20032;-82
2021/01/24 03:16:23;;;;;;;70.63;29.50;;;6.70;94.40;;;;;;5055719;28;20486;-82
2021/01/24 03:18:51;;;;;;;64.43;30.23;;;6.70;94.30;;;;;;5054174;28;20376;-83
2021/01/24 03:21:19;;;;;;;62.00;29.58;;;6.80;94.20;;;;;;5055630;28;20021;-82
2021/01/24 03:23:46;;;;;;;59.10;29.00;;;6.80;94.20;;;;;;5055531;28;20017;-82
2021/01/24 03:26:12;;;;;;;59.42;28.65;;;6.80;94.20;;;;;;5054315;28;20417;-82
2021/01/24 03:28:38;;;;;;;53.47;26.75;;;6.80;94.10;;;;;;5054093;28;20036;-82
2021/01/24 03:31:06;;;;;;;51.55;28.58;;;6.80;94.10;;;;;;5055388;28;20025;-82
2021/01/24 03:33:33;;;;;;;47.45;27.10;;;6.90;94.00;;;;;;5054140;28;20025;-83
2021/01/24 03:35:59;;;;;;;56.67;29.15;;;6.80;93.90;;;;;;5054054;28;20033;-83
2021/01/24 03:38:25;;;;;;;52.97;28.50;;;6.80;93.90;;;;;;5055250;28;20508;-83
2021/01/24 03:40:51;;;;;;;51.72;25.83;;;6.80;93.90;;;;;;5053935;28;20048;-82
2021/01/24 03:43:17;;;;;;;47.38;26.25;;;6.90;93.80;;;;;;5053876;28;20017;-82
2021/01/24 03:45:42;;;;;;;50.42;27.80;;;6.90;93.80;;;;;;5055066;28;20029;-82
2021/01/24 03:48:08;;;;;;;54.80;31.63;;;6.90;93.70;;;;;;5055410;28;20025;-82
2021/01/24 03:50:34;;;;;;;58.58;32.42;;;6.90;93.70;;;;;;5055003;28;20391;-83
2021/01/24 03:52:59;;;;;;;61.08;31.95;;;6.80;93.70;;;;;;5055038;28;20078;-82
2021/01/24 03:55:25;;;;;;;52.47;28.08;;;6.80;93.80;;;;;;5053662;28;20025;-82
2021/01/24 03:57:51;;;;;;;56.63;31.25;;;6.80;93.80;;;;;;5055138;28;20029;-82
2021/01/24 04:00:17;;;;;;;53.38;30.52;;;6.90;93.70;;;;;;5054783;28;20021;-83
2021/01/24 04:02:42;;;;;;;60.80;31.10;;;6.90;93.80;;;;;;5054893;28;20029;-83
2021/01/24 04:05:09;;;;;;;48.25;26.83;;;6.90;93.80;;;;;;5054060;28;20355;-82
2021/01/24 04:07:35;;;;;;;81.07;34.67;;;6.90;93.90;;;;;;5054746;28;20025;-83
2021/01/24 04:10:01;;;;;;;163.38;54.70;;;6.90;93.60;;;;;;5054982;28;20516;-83
2021/01/24 04:12:27;;;;;;;203.38;61.88;;;6.90;93.50;;;;;;5053326;28;20080;-82
2021/01/24 04:14:52;;;;;;;242.18;74.18;;;6.90;93.60;;;;;;5054773;28;20041;-83
2021/01/24 04:17:18;;;;;;;251.43;78.05;;;6.90;93.60;;;;;;5052535;28;20053;-82
2021/01/24 04:19:44;;;;;;;271.23;82.82;;;7.00;93.50;;;;;;5034507;28;20105;-82
2021/01/24 04:22:09;;;;;;;278.77;81.85;;;7.00;93.50;;;;;;5033924;28;20025;-83
2021/01/24 04:24:35;;;;;;;340.10;101.15;;;7.00;93.50;;;;;;5034726;28;20463;-83
2021/01/24 04:27:01;;;;;;;334.05;102.85;;;7.00;93.50;;;;;;5033238;28;20017;-82
2021/01/24 04:29:26;;;;;;;294.25;86.15;;;7.10;93.40;;;;;;5033029;28;20381;-82
2021/01/24 04:31:52;;;;;;;263.60;78.50;;;7.10;93.40;;;;;;5034303;28;20111;-83
2021/01/24 04:34:18;;;;;;;218.50;73.45;;;7.10;93.40;;;;;;5032493;28;20487;-82
2021/01/24 04:36:43;;;;;;;218.45;72.20;;;7.10;93.30;;;;;;5032935;28;20030;-83
2021/01/24 04:39:09;;;;;;;213.32;71.45;;;7.10;93.20;;;;;;5043121;28;20032;-83
2021/01/24 04:41:36;;;;;;;223.50;75.57;;;7.10;93.20;;;;;;5052865;28;20021;-82
2021/01/24 04:44:07;;;;;;;193.50;65.63;;;7.10;93.20;;;;;;5054141;28;20029;-82
2021/01/24 04:46:33;;;;;;;;;;;7.10;93.00;;;;;;5053328;28;20028;-82
2021/01/24 04:49:00;;;;;;;132.55;48.72;;;7.10;93.00;;;;;;5054209;28;19905;-82
2021/01/24 04:51:26;;;;;;;119.85;45.03;;;7.20;93.10;;;;;;5052708;28;20028;-82
2021/01/24 04:53:52;;;;;;;127.90;47.40;;;7.20;93.10;;;;;;5053919;28;20032;-82
2021/01/24 04:56:18;;;;;;;165.52;55.53;;;7.20;92.90;;;;;;5052595;28;20078;-82
2021/01/24 04:58:45;;;;;;;161.57;56.25;;;7.20;92.90;;;;;;5052522;28;20070;-82
2021/01/24 05:01:14;;;;;;;230.63;75.45;;;7.20;92.80;;;;;;5052505;28;20063;-81
2021/01/24 05:03:40;;;;;;;244.23;81.68;;;7.20;92.70;;;;;;5052441;28;20071;-82
2021/01/24 05:06:06;;;;;;;180.65;69.15;;;7.10;92.80;;;;;;5053524;28;20437;-81
2021/01/24 05:08:31;;;;;;;173.38;60.15;;;7.10;92.70;;;;;;5054035;28;20056;-82
2021/01/24 05:11:07;;;;;;;188.80;61.20;;;7.10;92.70;;;;;;5053620;28;20051;-81
2021/01/24 05:13:33;;;;;;;147.88;53.40;;;7.10;92.80;;;;;;5053491;28;20104;-81
2021/01/24 05:16:00;;;;;;;179.45;62.75;;;7.10;92.60;;;;;;5053838;28;20051;-82
2021/01/24 05:18:27;;;;;;;226.85;74.15;;;7.00;92.40;;;;;;5053260;28;20045;-82
2021/01/24 05:20:53;;;;;;;214.38;72.82;;;7.00;92.70;;;;;;5053514;28;20064;-82
2021/01/24 05:23:23;;;;;;;197.95;64.55;;;7.00;92.60;;;;;;5052087;28;20395;-82
2021/01/24 05:25:52;;;;;;;174.80;60.75;;;7.10;92.70;;;;;;5052070;28;20366;-83
2021/01/24 05:28:47;;;;;;;125.70;48.22;;;7.10;92.40;;;;;;5053238;28;20111;-82
2021/01/24 05:31:14;;;;;;;86.25;36.72;;;7.10;92.50;;;;;;5053347;28;20378;-82
2021/01/24 05:33:45;;;;;;;84.28;34.28;;;7.00;92.50;;;;;;5054254;28;20103;-83
2021/01/24 05:36:10;;;;;;;88.72;36.80;;;7.10;92.60;;;;;;5055978;28;20031;-82
2021/01/24 05:38:36;;;;;;;105.38;45.63;;;7.10;92.50;;;;;;5056083;28;20021;-82
2021/01/24 05:41:10;;;;;;;99.22;46.97;;;7.10;92.40;;;;;;5056133;28;20025;-82
2021/01/24 05:43:41;;;;;;;117.78;50.85;;;7.00;92.40;;;;;;5057166;28;20154;-82
2021/01/24 05:46:08;;;;;;;113.22;54.10;;;7.00;92.40;;;;;;5055413;28;20024;-83
2021/01/24 05:48:35;;;;;;;115.03;50.63;;;6.90;92.30;;;;;;5056458;28;20025;-84
2021/01/24 05:51:03;;;;;;;112.95;51.05;;;7.00;92.40;;;;;;5057009;28;20417;-85
2021/01/24 05:53:35;;;;;;;113.05;49.90;;;7.00;92.30;;;;;;5056985;28;20029;-83
2021/01/24 05:56:08;;;;;;;81.93;38.53;;;6.90;92.30;;;;;;5057120;28;20016;-86
2021/01/24 05:58:34;;;;;;;98.60;44.25;;;7.00;92.30;;;;;;5055715;28;20047;-86
2021/01/24 06:01:00;;;;;;;85.05;39.08;;;7.00;92.30;;;;;;5055911;28;20021;-85
2021/01/24 06:03:26;;;;;;;89.32;43.42;;;6.90;92.20;;;;;;5056972;28;20078;-88
2021/01/24 06:05:52;;;;;;;74.50;36.08;;;7.00;92.20;;;;;;5055739;28;20417;-83
2021/01/24 06:08:18;;;;;;;100.15;46.47;;;7.00;92.20;;;;;;5056814;28;20055;-84
2021/01/24 06:10:44;;;;;;;97.25;46.22;;;7.00;91.90;;;;;;5055725;28;20029;-84
2021/01/24 06:13:17;;;;;;;92.60;44.53;;;6.90;92.10;;;;;;5056715;28;20035;-84
2021/01/24 06:15:44;;;;;;;109.28;46.90;;;7.00;92.10;;;;;;5056749;28;20032;-84
2021/01/24 06:18:14;;;;;;;92.20;43.17;;;7.00;91.90;;;;;;5055281;28;20144;-84
2021/01/24 06:20:46;;;;;;;102.38;48.70;;;7.00;92.10;;;;;;5055161;28;20032;-83
2021/01/24 06:23:50;;;;;;;116.55;51.78;;;7.00;92.00;;;;;;5056778;28;20360;-83
2021/01/24 06:26:18;;;;;;;72.82;35.30;;;7.00;91.70;;;;;;5055322;28;20024;-84
2021/01/24 06:28:47;;;;;;;108.05;46.55;;;7.10;91.90;;;;;;5056391;28;20094;-83
2021/01/24 06:31:19;;;;;;;103.50;45.38;;;7.10;91.70;;;;;;5048845;28;20037;-83
2021/01/24 06:33:50;;;;;;;84.03;40.08;;;7.10;91.60;;;;;;5052276;28;20025;-84
2021/01/24 06:36:16;;;;;;;90.53;41.88;;;7.20;91.70;;;;;;5056769;28;20104;-84
2021/01/24 06:38:43;;;;;;;76.72;34.72;;;7.20;91.70;;;;;;5056209;28;20033;-84
2021/01/24 06:41:14;;;;;;;80.72;33.75;;;7.30;91.60;;;;;;5055165;28;20367;-83
2021/01/24 06:43:45;;;;;;;81.13;35.60;;;7.30;91.50;;;;;;5056668;28;20032;-84
2021/01/24 06:46:29;;;;;;;76.90;34.65;;;7.30;91.30;;;;;;5055848;28;20478;-83
2021/01/24 06:48:57;;;;;;;77.13;36.88;;;7.40;91.20;;;;;;5054891;28;20025;-84
2021/01/24 06:51:37;;;;;;;76.80;38.20;;;7.40;91.20;;;;;;5054688;28;20067;-83
2021/01/24 06:54:04;;;;;;;85.80;38.38;;;7.40;90.90;;;;;;5056202;28;20056;-84
2021/01/24 06:56:44;;;;;;;89.80;40.10;;;7.40;91.10;;;;;;5054805;28;20029;-84
2021/01/24 06:59:11;;;;;;;73.05;34.80;;;7.40;90.90;;;;;;5054728;28;20025;-84
2021/01/24 07:01:38;;;;;;;70.18;33.35;;;7.40;91.10;;;;;;5054673;28;20025;-84
2021/01/24 07:04:24;;;;;;;67.38;32.35;;;7.40;91.00;;;;;;5055855;28;20025;-84
2021/01/24 07:06:56;;;;;;;86.28;42.05;;;7.50;90.80;;;;;;5054583;28;20025;-83
2021/01/24 07:09:28;;;;;;;81.85;32.53;;;7.50;90.70;;;;;;5054501;28;20399;-83
2021/01/24 07:12:01;;;;;;;75.43;31.45;;;7.50;90.40;;;;;;5054448;28;20025;-84
2021/01/24 07:14:36;;;;;;;57.83;26.42;;;7.50;90.40;;;;;;5054412;28;20036;-84
2021/01/24 07:17:11;;;;;;;57.13;24.75;;;7.50;90.50;;;;;;5055476;28;20115;-84
2021/01/24 07:19:45;;;;;;;63.17;26.88;;;7.60;90.40;;;;;;5054271;28;20398;-84
2021/01/24 07:22:11;;;;;;;61.03;25.77;;;7.60;90.50;;;;;;5055649;28;20020;-83
2021/01/24 07:24:39;;;;;;;59.88;25.65;;;7.60;90.00;;;;;;5054355;28;20541;-83
2021/01/24 07:27:13;;;;;;;64.53;30.05;;;7.70;90.10;;;;;;5054245;28;20074;-84
2021/01/24 07:29:39;;;;;;;70.90;32.85;;;7.70;90.00;;;;;;5054140;28;20021;-84
2021/01/24 07:32:09;;;;;;;69.80;32.78;;;7.70;90.00;;;;;;5054003;28;20539;-84
2021/01/24 07:34:35;;;;;;;;;;;7.80;90.30;;;;;;5055823;28;20021;-83
2021/01/24 07:37:06;;;;;;;86.57;37.60;;;7.80;89.30;;;;;;5053679;28;19909;-84
2021/01/24 07:39:32;;;;;;;75.70;35.60;;;7.80;89.20;;;;;;5054262;28;20459;-83
2021/01/24 07:41:59;;;;;;;70.57;29.30;;;7.90;90.00;;;;;;5053824;28;20417;-82
2021/01/24 07:44:26;;;;;;;68.68;27.20;;;7.90;89.20;;;;;;5053821;28;20390;-84
2021/01/24 07:46:51;;;;;;;75.97;29.75;;;7.90;88.50;;;;;;5055463;28;20028;-84
2021/01/24 07:49:18;;;;;;;86.07;32.10;;;8.00;88.60;;;;;;5053854;28;20028;-84
2021/01/24 07:51:44;;;;;;;101.10;36.83;;;8.00;87.90;;;;;;5054725;28;20100;-83
2021/01/24 07:54:11;;;;;;;88.80;33.30;;;8.10;89.00;;;;;;5053680;28;20530;-83
2021/01/24 07:56:37;;;;;;;67.80;28.17;;;8.10;88.10;;;;;;5053018;28;20033;-84
2021/01/24 07:59:03;;;;;;;62.35;25.00;;;8.20;89.00;;;;;;5053909;28;20033;-84
2021/01/24 08:01:30;;;;;;;55.38;25.55;;;8.20;88.50;;;;;;5054635;28;20097;-84
2021/01/24 08:04:00;;;;;;;48.30;25.08;;;8.30;88.80;;;;;;5053387;28;20075;-83
2021/01/24 08:06:26;;;;;;;57.58;27.42;;;8.30;88.10;;;;;;5054587;28;20017;-83
2021/01/24 08:08:52;;;;;;;63.70;24.30;;;8.40;88.20;;;;;;5053383;28;20407;-83
2021/01/24 08:11:18;;;;;;;60.65;25.10;;;8.40;86.90;;;;;;5053261;28;20028;-84
2021/01/24 08:13:45;;;;;;;65.22;27.05;;;8.50;88.10;;;;;;5054189;28;20025;-84
2021/01/24 08:16:16;;;;;;;68.38;28.00;;;8.60;86.60;;;;;;5054339;28;20066;-83
2021/01/24 08:18:44;;;;;;;65.32;25.05;;;8.60;86.70;;;;;;5053010;28;20048;-84
2021/01/24 08:21:11;;;;;;;53.30;25.38;;;8.60;87.60;;;;;;5052888;28;20055;-83
2021/01/24 08:23:38;;;;;;;50.03;24.50;;;8.70;86.10;;;;;;5054461;28;20024;-84
2021/01/24 08:26:05;;;;;;;58.60;30.35;;;8.80;87.40;;;;;;5054224;28;20021;-83
2021/01/24 08:28:32;;;;;;;65.75;29.17;;;8.80;86.80;;;;;;5054538;28;20028;-84
2021/01/24 08:31:01;;;;;;;98.00;43.83;;;8.80;86.00;;;;;;5052893;28;20024;-83
2021/01/24 08:33:27;;;;;;;103.95;47.63;;;8.80;86.20;;;;;;5054459;28;20044;-83
2021/01/24 08:36:09;;;;;;;98.10;45.80;;;8.80;85.00;;;;;;5052757;28;20025;-83
2021/01/24 08:38:35;;;;;;;90.28;46.30;;;8.90;85.50;;;;;;5052982;28;20074;-83
2021/01/24 08:41:01;;;;;;;97.90;45.33;;;8.90;85.70;;;;;;5052623;28;20020;-84
2021/01/24 08:43:26;;;;;;;77.28;38.10;;;8.90;85.80;;;;;;5052604;28;20048;-84
2021/01/24 08:45:52;;;;;;;93.82;45.35;;;8.90;85.00;;;;;;5053866;28;20108;-84
2021/01/24 08:48:18;;;;;;;75.50;38.80;;;9.00;85.40;;;;;;5052596;28;20071;-83
2021/01/24 08:50:44;;;;;;;40.10;21.60;;;9.00;84.80;;;;;;5052544;28;20075;-84
2021/01/24 08:53:10;;;;;;;42.63;20.02;;;9.00;85.00;;;;;;5052675;28;20345;-84
2021/01/24 08:55:49;;;;;;;21.77;12.50;;;9.00;84.50;;;;;;5053908;28;20025;-85
2021/01/24 08:58:25;;;;;;;27.05;15.00;;;9.10;84.20;;;;;;5052482;28;20036;-85
2021/01/24 09:01:03;;;;;;;20.42;11.43;;;9.00;83.70;;;;;;5052581;28;20021;-85
2021/01/24 09:03:29;;;;;;;24.42;12.98;;;9.10;84.00;;;;;;5052301;28;20049;-85
2021/01/24 09:05:54;;;;;;;34.53;15.15;;;9.10;84.40;;;;;;5054001;28;20048;-85
2021/01/24 09:08:29;;;;;;;77.03;31.35;;;9.10;83.90;;;;;;5052005;28;20053;-85
2021/01/24 09:10:55;;;;;;;54.15;31.25;;;9.20;83.10;;;;;;5053723;28;20075;-85
2021/01/24 09:13:21;;;;;;;47.95;24.23;;;9.10;84.10;;;;;;5052141;28;20386;-85
2021/01/24 09:15:47;;;;;;;37.65;19.35;;;9.20;84.60;;;;;;5053538;28;20025;-85
2021/01/24 09:18:12;;;;;;;49.30;23.45;;;9.20;84.10;;;;;;5053178;28;20056;-84
2021/01/24 09:20:39;;;;;;;65.88;29.17;;;9.20;82.80;;;;;;5053365;28;20487;-85
2021/01/24 09:23:04;;;;;;;67.75;28.50;;;9.20;82.70;;;;;;5052205;28;20031;-84
2021/01/24 09:25:30;;;;;;;67.55;27.05;;;9.20;83.70;;;;;;5051850;28;20083;-85
2021/01/24 09:27:56;;;;;;;94.90;35.45;;;9.30;83.80;;;;;;5053499;28;20096;-84
2021/01/24 09:30:22;;;;;;;86.78;33.17;;;9.30;82.70;;;;;;5053842;28;20033;-84
2021/01/24 09:32:47;;;;;;;70.00;29.50;;;9.30;82.60;;;;;;5052120;28;20029;-84
2021/01/24 09:35:14;;;;;;;93.15;35.42;;;9.30;83.00;;;;;;5052158;28;20087;-84
2021/01/24 09:37:39;;;;;;;87.15;33.45;;;9.30;83.00;;;;;;5051981;28;20467;-84
2021/01/24 09:40:06;;;;;;;88.38;35.53;;;9.40;83.40;;;;;;5052071;28;20032;-84
2021/01/24 09:42:32;;;;;;;72.55;30.75;;;9.40;83.40;;;;;;5051966;28;20111;-84
2021/01/24 09:44:58;;;;;;;54.50;23.65;;;9.40;83.00;;;;;;5052984;28;20113;-84
2021/01/24 09:47:24;;;;;;;50.20;22.65;;;9.40;82.90;;;;;;5052787;28;20021;-83
2021/01/24 09:49:49;;;;;;;52.47;25.10;;;9.50;82.90;;;;;;5051910;28;20021;-84
2021/01/24 09:52:15;;;;;;;48.42;24.40;;;9.60;82.70;;;;;;5052743;28;20022;-85
2021/01/24 09:54:41;;;;;;;54.97;25.70;;;9.60;82.70;;;;;;5053332;28;20028;-85
2021/01/24 09:57:06;;;;;;;46.17;25.08;;;9.70;82.60;;;;;;5053035;28;20074;-84
2021/01/24 09:59:32;;;;;;;47.17;26.15;;;9.80;82.80;;;;;;5053434;28;20047;-83
2021/01/24 10:01:58;;;;;;;68.60;30.17;;;9.80;82.80;;;;;;5051648;28;20021;-83
2021/01/24 10:04:23;;;;;;;73.10;32.45;;;9.80;82.50;;;;;;5053031;28;20025;-85
2021/01/24 10:06:49;;;;;;;62.75;30.08;;;9.90;82.00;;;;;;5051875;28;20447;-85
2021/01/24 10:09:15;;;;;;;63.50;29.30;;;9.90;82.20;;;;;;5053108;28;20031;-85
2021/01/24 10:11:42;;;;;;;84.72;32.85;;;9.90;82.20;;;;;;5051811;28;20028;-85
2021/01/24 10:14:08;;;;;;;80.60;33.10;;;9.90;81.20;;;;;;5051696;28;20022;-85
2021/01/24 10:16:33;;;;;;;70.15;27.15;;;9.90;82.20;;;;;;5053056;28;20351;-85
2021/01/24 10:18:59;;;;;;;66.10;27.90;;;9.90;82.10;;;;;;5053038;28;20033;-85
2021/01/24 10:21:25;;;;;;;54.10;24.55;;;9.90;82.10;;;;;;5054861;28;20031;-85
2021/01/24 10:23:51;;;;;;;58.67;24.30;;;9.90;82.70;;;;;;5055558;28;20025;-85
2021/01/24 10:26:17;;;;;;;59.97;26.40;;;10.00;81.40;;;;;;5056835;28;20021;-84
2021/01/24 10:28:42;;;;;;;76.75;29.75;;;10.00;81.80;;;;;;5055437;28;20115;-85
2021/01/24 10:31:08;;;;;;;53.55;25.98;;;10.10;81.40;;;;;;5056416;28;20033;-85
2021/01/24 10:33:34;;;;;;;74.13;29.40;;;10.20;82.00;;;;;;5056888;28;20374;-85
2021/01/24 10:36:00;;;;;;;59.25;26.17;;;10.20;81.30;;;;;;5055230;28;20116;-84
2021/01/24 10:38:25;;;;;;;67.45;28.92;;;10.30;80.90;;;;;;5056363;28;20036;-84
2021/01/24 10:40:51;;;;;;;65.85;25.15;;;10.30;80.80;;;;;;5055240;28;20021;-84
2021/01/24 10:43:17;;;;;;;53.83;23.20;;;10.30;81.20;;;;;;5055141;28;20528;-85
2021/01/24 10:45:43;;;;;;;53.78;21.98;;;10.40;80.50;;;;;;5055012;28;20045;-85
2021/01/24 10:48:10;;;;;;;69.13;29.00;;;10.40;81.50;;;;;;5056295;28;20102;-84
2021/01/24 10:50:36;;;;;;;54.30;23.70;;;10.50;81.10;;;;;;5056071;28;20102;-85
2021/01/24 10:53:03;;;;;;;69.57;26.05;;;10.50;81.10;;;;;;5054874;28;20024;-85
2021/01/24 10:55:29;;;;;;;50.28;22.02;;;10.60;80.30;;;;;;5054869;28;20431;-85
2021/01/24 10:57:55;;;;;;;79.78;31.92;;;10.60;80.00;;;;;;5056054;28;20059;-85
2021/01/24 11:00:21;;;;;;;70.80;28.40;;;10.60;80.00;;;;;;5054729;28;20025;-85
2021/01/24 11:02:46;;;;;;;64.78;27.45;;;10.60;79.70;;;;;;5054649;28;20025;-85
2021/01/24 11:05:12;;;;;;;57.47;25.35;;;10.70;80.00;;;;;;5055917;28;20135;-85
2021/01/24 11:07:38;;;;;;;53.72;23.20;;;10.60;79.70;;;;;;5054353;28;20108;-85
2021/01/24 11:10:08;;;;;;;51.58;22.27;;;10.70;78.70;;;;;;5056142;28;20029;-85
2021/01/24 11:12:34;;;;;;;62.25;26.75;;;10.70;79.90;;;;;;5054535;28;20445;-85
2021/01/24 11:15:00;;;;;;;69.72;29.63;;;10.70;79.70;;;;;;5054486;28;20025;-85
2021/01/24 11:17:26;;;;;;;62.30;26.58;;;10.70;79.20;;;;;;5054186;28;20898;-85
2021/01/24 11:19:52;;;;;;;60.58;26.70;;;10.70;79.60;;;;;;5054463;28;20124;-85
2021/01/24 11:22:19;;;;;;;56.50;26.25;;;10.70;79.70;;;;;;5054363;28;20130;-85
2021/01/24 11:24:45;;;;;;;56.00;26.02;;;10.70;79.70;;;;;;5054141;28;20470;-85
2021/01/24 11:27:11;;;;;;;56.88;25.10;;;10.80;80.10;;;;;;5054491;28;20082;-85
2021/01/24 11:29:38;;;;;;;68.63;30.13;;;10.90;80.00;;;;;;5055454;28;20024;-85
2021/01/24 11:32:05;;;;;;;68.18;28.30;;;10.90;78.70;;;;;;5053957;28;20025;-85
2021/01/24 11:34:31;;;;;;;57.10;22.77;;;10.90;79.60;;;;;;5055268;28;20033;-85
2021/01/24 11:36:57;;;;;;;49.45;21.08;;;10.90;79.10;;;;;;5054189;28;20108;-85
2021/01/24 11:39:23;;;;;;;51.00;20.95;;;10.80;79.00;;;;;;5053751;28;20378;-85
2021/01/24 11:41:48;;;;;;;58.72;26.17;;;10.60;79.00;;;;;;5055516;28;20459;-84
2021/01/24 11:44:15;;;;;;;92.03;40.03;;;10.70;79.90;;;;;;5055562;28;20025;-85
2021/01/24 11:46:41;;;;;;;69.63;33.92;;;10.60;79.60;;;;;;5053944;28;20047;-85
2021/01/24 11:49:07;;;;;;;45.92;23.70;;;10.60;80.20;;;;;;5053950;28;20025;-85
2021/01/24 11:51:33;;;;;;;36.17;19.70;;;10.60;80.20;;;;;;5055080;28;20075;-85
2021/01/24 11:53:58;;;;;;;32.78;18.05;;;10.60;80.20;;;;;;5055031;28;20021;-86
2021/01/24 11:56:24;;;;;;;36.60;18.30;;;10.60;79.70;;;;;;5055028;28;20028;-85
2021/01/24 11:58:50;;;;;;;35.70;16.92;;;10.60;80.30;;;;;;5054634;28;20545;-85
2021/01/24 12:01:15;;;;;;;39.47;18.10;;;10.60;80.40;;;;;;5054737;28;20051;-88
2021/01/24 12:03:41;;;;;;;48.42;23.10;;;10.60;80.00;;;;;;5054848;28;20486;-87
2021/01/24 12:06:07;;;;;;;45.03;21.45;;;10.60;80.10;;;;;;5055310;28;20140;-87
2021/01/24 12:08:33;;;;;;;61.50;27.60;;;10.70;80.40;;;;;;5053515;28;20029;-88
2021/01/24 12:10:59;;;;;;;80.00;33.47;;;10.70;80.30;;;;;;5053638;28;20029;-88
2021/01/24 12:13:25;;;;;;;60.38;28.77;;;10.70;79.90;;;;;;5053817;28;20029;-93
2021/01/24 12:15:50;;;;;;;48.40;20.08;;;10.70;80.20;;;;;;5053909;28;20025;-89
2021/01/24 12:18:16;;;;;;;20.67;12.73;;;10.70;79.80;;;;;;5051669;28;20509;-90
2021/01/24 12:20:42;;;;;;;26.35;14.18;;;10.80;79.80;;;;;;5053524;28;20033;-89
2021/01/24 12:23:08;;;;;;;29.90;14.10;;;10.80;80.10;;;;;;5054520;28;20017;-87
2021/01/24 12:25:34;;;;;;;21.13;12.25;;;10.80;80.20;;;;;;5052651;28;20382;-85
2021/01/24 12:28:00;;;;;;;17.52;10.45;;;10.90;80.00;;;;;;5053351;28;20466;-86
2021/01/24 12:30:26;;;;;;;14.52;10.55;;;11.00;80.10;;;;;;5054385;28;20052;-84
2021/01/24 12:32:52;;;;;;;30.92;17.83;;;11.00;79.70;;;;;;5052495;28;20234;-84
2021/01/24 12:35:18;;;;;;;29.23;18.25;;;11.00;79.60;;;;;;5052530;28;20028;-84